Great Scott, Minnesota
Current Conditions -  °F | °C
As of 7:53 AM on Thursday 29 Jan 2015 (Local Time) from KHIB Reporting Station
Overcast Overcast  
Wind Chill:   Ceiling: 600
Heat Index: 22°   Visibility: 10mi
Dew Point: 18°   Wind: 23mph
Humidity: 85%   Direction: 320°NW
Pressure: 30.07"   Gusts: 30mph
Location:  47.4951°N, 92.7779°W
Report Text: KHIB 291353Z AUTO 32020G26KT 10SM OVC006 M06/M08 A3007 RMK AO2 PK WND 31026/1345 UPB15E24B31E44 SLP204 P0000 T10561078
Loading
Personal Weather Stations






























Interactive Weather Map New forecast layout! Learn more

10-Day Weather Forecast

Advertisements
Track Severe Weather on mobile